PWSweather.com
Personal Weather Stations
Station Observations
UISISLE1
Newport, Isle ofWight, ISLE OF WIGHT PO30 2JX

NewportIsle ofWight, ISLE OF WIGHT PO30 2JX

Lat: 50.72, Lon: -1.27

Elevation: 45

Station Type: Davis Vantage Pro Plus

http://www.isleofwightweather.co.uk

High Low Average
Temperature 52.9°F11.6°F 47.9°F8.8°F 50.9°F10.5°F
Dew Point 52.4°F11.3°F 44.5°F6.9°F 49.5°F9.7°F
Winds 15.3 mph SW24.6 mph SW 2.1 mph 3.4 mph 9.0 mph 14.5 mph
Wind Gusts 24.0 mph38.6 mph 5.0 mph8.0 mph 14.8 mph23.8 mph
Humidity 98% 87% 95%
Pressure 30.14 in1020.70 in 29.97 in1014.90 in -
Precipitation 0.21 in5.30 in - -
Hour Temp Dew Point Humidity Winds Wind Gusts Pressure Precip Precip Rate Daily Precip Total
12:00 AM 48.7°F9.3°C 45.9°F7.7°C 90% 5.1 mph WSW8.2 kmh WSW 9.0 mph14.5 kmh 30.14 in1020.7 mb - 0.00 in0.0 mm 0.00 in0.0 mm
12:15 AM 48.8°F9.3°C 46.0°F7.8°C 90% 5.8 mph WSW9.3 kmh WSW 13.0 mph20.9 kmh 30.13 in1020.3 mb - 0.00 in0.0 mm 0.00 in0.0 mm
12:30 AM 48.6°F9.2°C 45.8°F7.7°C 90% 7.1 mph WSW11.4 kmh WSW 10.0 mph16.1 kmh 30.13 in1020.3 mb - 0.00 in0.0 mm 0.00 in0.0 mm
12:45 AM 48.3°F9.1°C 45.5°F7.5°C 90% 4.7 mph WSW7.6 kmh WSW 5.0 mph8.0 kmh 30.13 in1020.3 mb - 0.00 in0.0 mm 0.00 in0.0 mm
01:00 AM 48.0°F8.9°C 44.9°F7.2°C 89% 4.0 mph WNW6.4 kmh WNW 6.0 mph9.7 kmh 30.13 in1020.3 mb - 0.00 in0.0 mm 0.00 in0.0 mm
01:15 AM 47.9°F8.8°C 44.8°F7.1°C 89% 2.1 mph WSW3.4 kmh WSW 6.0 mph9.7 kmh 30.12 in1020.0 mb - 0.00 in0.0 mm 0.00 in0.0 mm
01:30 AM 47.9°F8.8°C 44.5°F6.9°C 88% 3.8 mph WSW6.1 kmh WSW 8.0 mph12.9 kmh 30.12 in1020.0 mb - 0.00 in0.0 mm 0.00 in0.0 mm
01:45 AM 47.9°F8.8°C 44.5°F6.9°C 88% 6.9 mph WSW11.1 kmh WSW 10.0 mph16.1 kmh 30.12 in1020.0 mb - 0.00 in0.0 mm 0.00 in0.0 mm
02:00 AM 48.1°F8.9°C 44.7°F7.1°C 88% 5.8 mph SW9.3 kmh SW 8.0 mph12.9 kmh 30.12 in1020.0 mb - 0.00 in0.0 mm 0.00 in0.0 mm
02:15 AM 48.4°F9.1°C 44.7°F7.1°C 87% 4.4 mph SW7.1 kmh SW 6.0 mph9.7 kmh 30.12 in1020.0 mb - 0.00 in0.0 mm 0.00 in0.0 mm
02:30 AM 48.9°F9.4°C 45.5°F7.5°C 88% 4.2 mph SW6.8 kmh SW 7.0 mph11.3 kmh 30.12 in1020.0 mb - 0.00 in0.0 mm 0.00 in0.0 mm
02:45 AM 48.8°F9.3°C 45.5°F7.5°C 88% 6.3 mph SW10.1 kmh SW 11.0 mph17.7 kmh 30.11 in1019.6 mb - 0.00 in0.0 mm 0.00 in0.0 mm
03:00 AM 49.0°F9.4°C 45.9°F7.7°C 89% 5.3 mph SW8.5 kmh SW 10.0 mph16.1 kmh 30.11 in1019.6 mb - 0.00 in0.0 mm 0.00 in0.0 mm
03:15 AM 49.0°F9.4°C 46.1°F7.8°C 90% 5.8 mph WSW9.3 kmh WSW 10.0 mph16.1 kmh 30.11 in1019.6 mb - 0.00 in0.0 mm 0.00 in0.0 mm
03:30 AM 48.9°F9.4°C 46.1°F7.8°C 90% 6.0 mph SSW9.7 kmh SSW 7.0 mph11.3 kmh 30.11 in1019.6 mb - 0.00 in0.0 mm 0.00 in0.0 mm
03:45 AM 49.2°F9.6°C 47.0°F8.3°C 92% 7.2 mph SW11.6 kmh SW 12.0 mph19.3 kmh 30.11 in1019.6 mb - 0.00 in0.0 mm 0.00 in0.0 mm
04:00 AM 49.3°F9.6°C 47.1°F8.4°C 92% 4.9 mph SW7.9 kmh SW 10.0 mph16.1 kmh 30.10 in1019.3 mb - 0.00 in0.0 mm 0.00 in0.0 mm
04:15 AM 49.4°F9.7°C 47.2°F8.4°C 92% 6.3 mph SSW10.1 kmh SSW 9.0 mph14.5 kmh 30.09 in1019.0 mb - 0.00 in0.0 mm 0.00 in0.0 mm
04:30 AM 49.3°F9.6°C 47.4°F8.6°C 93% 5.3 mph SW8.5 kmh SW 8.0 mph12.9 kmh 30.08 in1018.6 mb - 0.00 in0.0 mm 0.00 in0.0 mm
04:45 AM 49.3°F9.6°C 47.4°F8.6°C 93% 6.8 mph SW10.9 kmh SW 16.0 mph25.7 kmh 30.08 in1018.6 mb - 0.00 in0.0 mm 0.00 in0.0 mm
05:00 AM 49.2°F9.6°C 47.3°F8.5°C 93% 7.4 mph SW11.9 kmh SW 14.0 mph22.5 kmh 30.08 in1018.6 mb - 0.00 in0.0 mm 0.00 in0.0 mm
05:15 AM 49.2°F9.6°C 47.2°F8.4°C 93% 3.5 mph SW5.6 kmh SW 8.0 mph12.9 kmh 30.07 in1018.3 mb - 0.00 in0.0 mm 0.00 in0.0 mm
05:30 AM 49.2°F9.6°C 47.3°F8.5°C 93% 6.2 mph SSW10.0 kmh SSW 13.0 mph20.9 kmh 30.06 in1017.9 mb - 0.00 in0.0 mm 0.00 in0.0 mm
05:45 AM 49.2°F9.6°C 47.3°F8.5°C 93% 6.8 mph SSW10.9 kmh SSW 18.0 mph29.0 kmh 30.06 in1017.9 mb - 0.00 in0.0 mm 0.00 in0.0 mm
06:00 AM 49.2°F9.6°C 47.3°F8.5°C 93% 7.2 mph SSW11.6 kmh SSW 14.0 mph22.5 kmh 30.06 in1017.9 mb - 0.00 in0.0 mm 0.00 in0.0 mm
06:15 AM 49.0°F9.4°C 47.4°F8.6°C 94% 7.5 mph SW12.1 kmh SW 11.0 mph17.7 kmh 30.06 in1017.9 mb - 0.02 in0.5 mm 0.02 in0.5 mm
06:30 AM 48.9°F9.4°C 47.2°F8.4°C 94% 7.7 mph SSW12.4 kmh SSW 12.0 mph19.3 kmh 30.05 in1017.6 mb - 0.02 in0.5 mm 0.03 in0.8 mm
06:45 AM 48.8°F9.3°C 47.2°F8.4°C 94% 8.2 mph SW13.2 kmh SW 12.0 mph19.3 kmh 30.05 in1017.6 mb - 0.00 in0.0 mm 0.03 in0.8 mm
07:00 AM 48.9°F9.4°C 47.2°F8.4°C 94% 9.3 mph SW15.0 kmh SW 14.0 mph22.5 kmh 30.05 in1017.6 mb - 0.01 in0.3 mm 0.04 in1.0 mm
07:15 AM 49.0°F9.4°C 47.6°F8.7°C 95% 9.2 mph SSW14.8 kmh SSW 15.0 mph24.1 kmh 30.04 in1017.3 mb - 0.02 in0.5 mm 0.06 in1.5 mm
07:30 AM 49.1°F9.5°C 47.7°F8.7°C 95% 9.0 mph SSW14.5 kmh SSW 16.0 mph25.7 kmh 30.04 in1017.3 mb - 0.02 in0.5 mm 0.08 in2.0 mm
07:45 AM 49.4°F9.7°C 48.0°F8.9°C 95% 10.1 mph S16.3 kmh S 19.0 mph30.6 kmh 30.04 in1017.3 mb - 0.02 in0.5 mm 0.09 in2.3 mm
08:00 AM 49.6°F9.8°C 48.2°F9.0°C 95% 5.9 mph SW9.5 kmh SW 16.0 mph25.7 kmh 30.04 in1017.3 mb - 0.01 in0.3 mm 0.09 in2.3 mm
08:15 AM 49.8°F9.9°C 48.7°F9.3°C 96% 10.0 mph SW16.1 kmh SW 16.0 mph25.7 kmh 30.04 in1017.3 mb - 0.00 in0.0 mm 0.09 in2.3 mm
08:30 AM 50.1°F10.1°C 49.0°F9.4°C 96% 11.5 mph SW18.5 kmh SW 16.0 mph25.7 kmh 30.04 in1017.3 mb - 0.00 in0.0 mm 0.09 in2.3 mm
08:45 AM 50.5°F10.3°C 49.4°F9.7°C 96% 9.1 mph WSW14.6 kmh WSW 21.0 mph33.8 kmh 30.03 in1016.9 mb - 0.01 in0.3 mm 0.10 in2.5 mm
09:00 AM 50.7°F10.4°C 49.6°F9.8°C 96% 10.8 mph WSW17.4 kmh WSW 16.0 mph25.7 kmh 30.03 in1016.9 mb - 0.00 in0.0 mm 0.10 in2.5 mm
09:15 AM 50.9°F10.5°C 49.8°F9.9°C 96% 8.0 mph SW12.9 kmh SW 12.0 mph19.3 kmh 30.04 in1017.3 mb - 0.00 in0.0 mm 0.10 in2.5 mm
09:30 AM 51.0°F10.6°C 49.9°F9.9°C 96% 11.9 mph SW19.2 kmh SW 19.0 mph30.6 kmh 30.03 in1016.9 mb - 0.00 in0.0 mm 0.10 in2.5 mm
09:45 AM 51.4°F10.8°C 50.5°F10.3°C 97% 12.5 mph SSW20.1 kmh SSW 17.0 mph27.4 kmh 30.03 in1016.9 mb - 0.00 in0.0 mm 0.10 in2.5 mm
10:00 AM 51.8°F11.0°C 51.0°F10.6°C 97% 9.4 mph S15.1 kmh S 18.0 mph29.0 kmh 30.03 in1016.9 mb - 0.00 in0.0 mm 0.10 in2.5 mm
10:15 AM 52.0°F11.1°C 51.2°F10.7°C 97% 8.8 mph SW14.2 kmh SW 20.0 mph32.2 kmh 30.04 in1017.3 mb - 0.00 in0.0 mm 0.10 in2.5 mm
10:30 AM 52.1°F11.2°C 51.3°F10.7°C 97% 11.8 mph WSW19.0 kmh WSW 17.0 mph27.4 kmh 30.04 in1017.3 mb - 0.00 in0.0 mm 0.10 in2.5 mm
10:45 AM 52.4°F11.3°C 51.6°F10.9°C 97% 11.7 mph SW18.8 kmh SW 14.0 mph22.5 kmh 30.03 in1016.9 mb - 0.00 in0.0 mm 0.10 in2.5 mm
11:00 AM 52.5°F11.4°C 51.7°F10.9°C 97% 11.2 mph SW18.0 kmh SW 14.0 mph22.5 kmh 30.04 in1017.3 mb - 0.02 in0.5 mm 0.13 in3.3 mm
11:15 AM 52.3°F11.3°C 51.5°F10.8°C 97% 11.8 mph WSW19.0 kmh WSW 21.0 mph33.8 kmh 30.03 in1016.9 mb - 0.02 in0.5 mm 0.14 in3.6 mm
11:30 AM 52.0°F11.1°C 51.2°F10.7°C 97% 12.0 mph SW19.3 kmh SW 16.0 mph25.7 kmh 30.02 in1016.6 mb - 0.00 in0.0 mm 0.14 in3.6 mm
11:45 AM 52.0°F11.1°C 51.2°F10.7°C 97% 12.2 mph SW19.6 kmh SW 22.0 mph35.4 kmh 30.02 in1016.6 mb - 0.01 in0.3 mm 0.15 in3.8 mm
12:00 PM 51.9°F11.1°C 51.1°F10.6°C 97% 8.9 mph SW14.3 kmh SW 16.0 mph25.7 kmh 30.01 in1016.3 mb - 0.00 in0.0 mm 0.15 in3.8 mm
12:15 PM 51.9°F11.1°C 51.1°F10.6°C 97% 10.1 mph SW16.3 kmh SW 19.0 mph30.6 kmh 30.02 in1016.6 mb - 0.00 in0.0 mm 0.15 in3.8 mm
12:30 PM 52.1°F11.2°C 51.2°F10.7°C 97% 7.6 mph WSW12.2 kmh WSW 12.0 mph19.3 kmh 30.01 in1016.3 mb - 0.00 in0.0 mm 0.15 in3.8 mm
12:45 PM 52.3°F11.3°C 51.5°F10.8°C 97% 8.1 mph SW13.0 kmh SW 14.0 mph22.5 kmh 30.00 in1015.9 mb - 0.00 in0.0 mm 0.15 in3.8 mm
01:00 PM 52.4°F11.3°C 51.5°F10.8°C 97% 8.4 mph SW13.5 kmh SW 16.0 mph25.7 kmh 30.01 in1016.3 mb - 0.01 in0.3 mm 0.16 in4.1 mm
01:15 PM 52.5°F11.4°C 51.7°F10.9°C 97% 7.0 mph WSW11.3 kmh WSW 14.0 mph22.5 kmh 30.00 in1015.9 mb - 0.00 in0.0 mm 0.16 in4.1 mm
01:30 PM 52.5°F11.4°C 51.7°F10.9°C 97% 6.9 mph SW11.1 kmh SW 15.0 mph24.1 kmh 30.00 in1015.9 mb - 0.00 in0.0 mm 0.16 in4.1 mm
01:45 PM 52.4°F11.3°C 51.6°F10.9°C 97% 10.4 mph S16.7 kmh S 19.0 mph30.6 kmh 29.99 in1015.6 mb - 0.00 in0.0 mm 0.16 in4.1 mm
02:00 PM 52.4°F11.3°C 51.6°F10.9°C 97% 9.9 mph SW15.9 kmh SW 14.0 mph22.5 kmh 29.99 in1015.6 mb - 0.00 in0.0 mm 0.16 in4.1 mm
02:15 PM 52.7°F11.5°C 51.9°F11.1°C 97% 11.9 mph S19.2 kmh S 17.0 mph27.4 kmh 29.98 in1015.2 mb - 0.00 in0.0 mm 0.16 in4.1 mm
02:30 PM 52.7°F11.5°C 51.9°F11.1°C 97% 7.7 mph SW12.4 kmh SW 11.0 mph17.7 kmh 29.98 in1015.2 mb - 0.00 in0.0 mm 0.16 in4.1 mm
02:45 PM 52.7°F11.5°C 51.9°F11.1°C 97% 11.8 mph SSW19.0 kmh SSW 21.0 mph33.8 kmh 29.98 in1015.2 mb - 0.01 in0.3 mm 0.17 in4.3 mm
03:00 PM 52.5°F11.4°C 51.7°F10.9°C 97% 13.0 mph SSW20.9 kmh SSW 22.0 mph35.4 kmh 29.98 in1015.2 mb - 0.00 in0.0 mm 0.17 in4.3 mm
03:15 PM 52.4°F11.3°C 51.6°F10.9°C 97% 10.4 mph WSW16.7 kmh WSW 16.0 mph25.7 kmh 29.98 in1015.2 mb - 0.00 in0.0 mm 0.17 in4.3 mm
03:30 PM 52.6°F11.4°C 51.8°F11.0°C 97% 12.7 mph WSW20.4 kmh WSW 23.0 mph37.0 kmh 29.98 in1015.2 mb - 0.01 in0.3 mm 0.17 in4.3 mm
03:45 PM 52.8°F11.6°C 52.0°F11.1°C 97% 10.5 mph S16.9 kmh S 22.0 mph35.4 kmh 29.98 in1015.2 mb - 0.00 in0.0 mm 0.17 in4.3 mm
04:00 PM 52.9°F11.6°C 52.4°F11.3°C 98% 15.3 mph SW24.6 kmh SW 23.0 mph37.0 kmh 29.98 in1015.2 mb - 0.00 in0.0 mm 0.17 in4.3 mm
04:15 PM 52.9°F11.6°C 52.4°F11.3°C 98% 14.7 mph SW23.7 kmh SW 20.0 mph32.2 kmh 29.98 in1015.2 mb - 0.00 in0.0 mm 0.17 in4.3 mm
04:30 PM 52.7°F11.5°C 51.9°F11.1°C 97% 12.9 mph SW20.8 kmh SW 18.0 mph29.0 kmh 29.97 in1014.9 mb - 0.00 in0.0 mm 0.17 in4.3 mm
04:45 PM 52.7°F11.5°C 51.9°F11.1°C 97% 15.2 mph W24.5 kmh W 20.0 mph32.2 kmh 29.98 in1015.2 mb - 0.00 in0.0 mm 0.17 in4.3 mm
05:00 PM 52.5°F11.4°C 51.7°F10.9°C 97% 13.0 mph W20.9 kmh W 19.0 mph30.6 kmh 29.98 in1015.2 mb - 0.00 in0.0 mm 0.17 in4.3 mm
05:15 PM 52.4°F11.3°C 51.6°F10.9°C 97% 13.0 mph SW20.9 kmh SW 19.0 mph30.6 kmh 29.98 in1015.2 mb - 0.00 in0.0 mm 0.17 in4.3 mm
05:30 PM 52.4°F11.3°C 51.6°F10.9°C 97% 14.2 mph WSW22.9 kmh WSW 24.0 mph38.6 kmh 29.99 in1015.6 mb - 0.00 in0.0 mm 0.17 in4.3 mm
05:45 PM 52.4°F11.3°C 51.6°F10.9°C 97% 12.5 mph WSW20.1 kmh WSW 22.0 mph35.4 kmh 29.99 in1015.6 mb - 0.00 in0.0 mm 0.17 in4.3 mm
06:00 PM 52.5°F11.4°C 51.6°F10.9°C 97% 11.2 mph SW18.0 kmh SW 24.0 mph38.6 kmh 30.00 in1015.9 mb - 0.00 in0.0 mm 0.17 in4.3 mm
06:15 PM 52.5°F11.4°C 51.7°F10.9°C 97% 10.6 mph WNW17.1 kmh WNW 13.0 mph20.9 kmh 30.00 in1015.9 mb - 0.00 in0.0 mm 0.17 in4.3 mm
06:30 PM 52.6°F11.4°C 51.8°F11.0°C 97% 10.4 mph W16.7 kmh W 17.0 mph27.4 kmh 30.01 in1016.3 mb - 0.00 in0.0 mm 0.17 in4.3 mm
06:45 PM 52.6°F11.4°C 51.8°F11.0°C 97% 9.5 mph WNW15.3 kmh WNW 12.0 mph19.3 kmh 30.01 in1016.3 mb - 0.00 in0.0 mm 0.17 in4.3 mm
07:00 PM 52.5°F11.4°C 51.7°F10.9°C 97% 11.1 mph W17.9 kmh W 21.0 mph33.8 kmh 30.01 in1016.3 mb - 0.00 in0.0 mm 0.17 in4.3 mm
07:15 PM 52.4°F11.3°C 51.5°F10.8°C 97% 10.0 mph WSW16.1 kmh WSW 17.0 mph27.4 kmh 30.01 in1016.3 mb - 0.00 in0.0 mm 0.17 in4.3 mm
07:30 PM 52.4°F11.3°C 51.6°F10.9°C 97% 9.6 mph WSW15.4 kmh WSW 13.0 mph20.9 kmh 30.01 in1016.3 mb - 0.00 in0.0 mm 0.17 in4.3 mm
07:45 PM 52.3°F11.3°C 51.5°F10.8°C 97% 9.4 mph W15.1 kmh W 14.0 mph22.5 kmh 30.01 in1016.3 mb - 0.00 in0.0 mm 0.17 in4.3 mm
08:00 PM 52.0°F11.1°C 51.2°F10.7°C 97% 11.4 mph SW18.3 kmh SW 19.0 mph30.6 kmh 30.01 in1016.3 mb - 0.00 in0.0 mm 0.17 in4.3 mm
08:15 PM 51.5°F10.8°C 50.7°F10.4°C 97% 9.3 mph WSW15.0 kmh WSW 12.0 mph19.3 kmh 30.00 in1015.9 mb - 0.00 in0.0 mm 0.17 in4.3 mm
08:30 PM 51.4°F10.8°C 50.6°F10.3°C 97% 10.2 mph SW16.4 kmh SW 18.0 mph29.0 kmh 30.01 in1016.3 mb - 0.00 in0.0 mm 0.17 in4.3 mm
08:45 PM 51.5°F10.8°C 50.7°F10.4°C 97% 12.8 mph WSW20.6 kmh WSW 19.0 mph30.6 kmh 30.01 in1016.3 mb - 0.00 in0.0 mm 0.17 in4.3 mm
09:00 PM 51.7°F10.9°C 50.9°F10.5°C 97% 9.4 mph WSW15.1 kmh WSW 15.0 mph24.1 kmh 30.01 in1016.3 mb - 0.00 in0.0 mm 0.17 in4.3 mm
09:15 PM 51.8°F11.0°C 51.0°F10.6°C 97% 8.8 mph SW14.2 kmh SW 12.0 mph19.3 kmh 30.01 in1016.3 mb - 0.00 in0.0 mm 0.17 in4.3 mm
09:30 PM 51.7°F10.9°C 50.6°F10.3°C 96% 9.0 mph SW14.5 kmh SW 15.0 mph24.1 kmh 30.01 in1016.3 mb - 0.00 in0.0 mm 0.17 in4.3 mm
09:45 PM 51.6°F10.9°C 50.5°F10.3°C 96% 9.9 mph WSW15.9 kmh WSW 14.0 mph22.5 kmh 30.01 in1016.3 mb - 0.00 in0.0 mm 0.17 in4.3 mm
10:00 PM 51.5°F10.8°C 50.4°F10.2°C 96% 9.1 mph SW14.6 kmh SW 17.0 mph27.4 kmh 30.01 in1016.3 mb - 0.00 in0.0 mm 0.17 in4.3 mm
10:15 PM 51.5°F10.8°C 50.4°F10.2°C 96% 7.5 mph SW12.1 kmh SW 13.0 mph20.9 kmh 30.01 in1016.3 mb - 0.00 in0.0 mm 0.17 in4.3 mm
10:30 PM 51.5°F10.8°C 50.4°F10.2°C 96% 9.8 mph SW15.8 kmh SW 13.0 mph20.9 kmh 30.00 in1015.9 mb - 0.00 in0.0 mm 0.17 in4.3 mm
10:45 PM 51.5°F10.8°C 50.4°F10.2°C 96% 10.1 mph SW16.3 kmh SW 14.0 mph22.5 kmh 30.01 in1016.3 mb - 0.00 in0.0 mm 0.17 in4.3 mm
11:00 PM 51.7°F10.9°C 50.3°F10.2°C 95% 11.0 mph WSW17.7 kmh WSW 17.0 mph27.4 kmh 30.01 in1016.3 mb - 0.00 in0.0 mm 0.17 in4.3 mm
11:15 PM 52.0°F11.1°C 50.6°F10.3°C 95% 7.6 mph SSW12.2 kmh SSW 12.0 mph19.3 kmh 30.01 in1016.3 mb - 0.00 in0.0 mm 0.17 in4.3 mm
11:30 PM 52.0°F11.1°C 50.6°F10.3°C 95% 6.3 mph SSW10.1 kmh SSW 8.0 mph12.9 kmh 30.00 in1015.9 mb - 0.00 in0.0 mm 0.17 in4.3 mm
11:45 PM 52.2°F11.2°C 50.8°F10.4°C 95% 7.6 mph SW12.2 kmh SW 13.0 mph20.9 kmh 30.00 in1015.9 mb - 0.00 in0.0 mm 0.17 in4.3 mm